TimeEDT,TemperatureF,Dew PointF,Humidity,Sea Level PressureIn,VisibilityMPH,Wind Direction,Wind SpeedMPH,Gust SpeedMPH,PrecipitationIn,Events,Conditions,WindDirDegrees,DateUTC
12:51 AM,66.9,48.9,52,30.18,10.0,SW,6.9,-,N/A,,Clear,230,2013-06-20 04:51:00
1:51 AM,66.0,48.0,52,30.19,10.0,SW,6.9,-,N/A,,Clear,220,2013-06-20 05:51:00
2:51 AM,66.0,46.9,50,30.19,10.0,SW,3.5,-,N/A,,Clear,220,2013-06-20 06:51:00
3:51 AM,64.9,46.9,52,30.20,10.0,SW,4.6,-,N/A,,Clear,230,2013-06-20 07:51:00
4:51 AM,64.9,48.0,54,30.21,10.0,SSW,5.8,-,N/A,,Scattered Clouds,210,2013-06-20 08:51:00
5:51 AM,64.9,48.0,54,30.22,10.0,SSW,4.6,-,N/A,,Partly Cloudy,210,2013-06-20 09:51:00
6:51 AM,66.9,48.9,52,30.24,10.0,SSW,4.6,-,N/A,,Partly Cloudy,210,2013-06-20 10:51:00
7:51 AM,69.1,50.0,51,30.25,10.0,WSW,8.1,-,N/A,,Partly Cloudy,240,2013-06-20 11:51:00
8:51 AM,71.1,50.0,47,30.25,10.0,SW,8.1,-,N/A,,Clear,230,2013-06-20 12:51:00
9:51 AM,72.0,48.9,44,30.25,10.0,WSW,6.9,-,N/A,,Clear,240,2013-06-20 13:51:00
10:51 AM,73.9,51.1,45,30.27,10.0,SW,10.4,16.1,N/A,,Partly Cloudy,230,2013-06-20 14:51:00
11:51 AM,75.9,51.1,42,30.26,10.0,SW,6.9,-,N/A,,Partly Cloudy,230,2013-06-20 15:51:00
12:51 PM,77.0,50.0,39,30.25,10.0,SW,8.1,16.1,N/A,,Scattered Clouds,230,2013-06-20 16:51:00
1:51 PM,79.0,55.0,44,30.25,10.0,South,15.0,-,N/A,,Scattered Clouds,180,2013-06-20 17:51:00
2:51 PM,78.1,55.0,45,30.23,10.0,South,13.8,-,N/A,,Scattered Clouds,170,2013-06-20 18:51:00
3:51 PM,77.0,52.0,42,30.24,10.0,South,12.7,19.6,N/A,,Scattered Clouds,180,2013-06-20 19:51:00
4:51 PM,78.1,52.0,40,30.23,10.0,SSE,17.3,20.7,N/A,,Partly Cloudy,160,2013-06-20 20:51:00
5:51 PM,75.9,52.0,43,30.23,10.0,South,16.1,-,N/A,,Partly Cloudy,180,2013-06-20 21:51:00
6:51 PM,75.0,50.0,41,30.23,10.0,South,16.1,-,N/A,,Partly Cloudy,170,2013-06-20 22:51:00
7:51 PM,73.0,51.1,46,30.23,10.0,South,15.0,-,N/A,,Partly Cloudy,170,2013-06-20 23:51:00
8:51 PM,71.1,50.0,47,30.23,10.0,South,11.5,-,N/A,,Partly Cloudy,180,2013-06-21 00:51:00
9:51 PM,70.0,53.1,55,30.25,10.0,South,11.5,-,N/A,,Partly Cloudy,180,2013-06-21 01:51:00
10:51 PM,69.1,54.0,58,30.25,10.0,South,10.4,-,N/A,,Clear,170,2013-06-21 02:51:00
11:51 PM,69.1,46.0,44,30.27,10.0,SSW,12.7,20.7,N/A,,Partly Cloudy,210,2013-06-21 03:51:00